sensor_id;sensor_type;location;lat;lon;timestamp;pressure;altitude;pressure_sealevel;temperature;humidity
73453;BME280;61687;56.232;43.854;2023-09-19T00:02:17;101369.25;;;8.63;75.39
73453;BME280;61687;56.232;43.854;2023-09-19T00:04:43;101373.09;;;8.62;75.24
73453;BME280;61687;56.232;43.854;2023-09-19T00:07:10;101370.06;;;8.54;75.46
73453;BME280;61687;56.232;43.854;2023-09-19T00:09:36;101372.94;;;8.49;75.46
73453;BME280;61687;56.232;43.854;2023-09-19T00:12:06;101373.13;;;8.44;75.56
73453;BME280;61687;56.232;43.854;2023-09-19T00:14:32;101386.31;;;8.42;75.68
73453;BME280;61687;56.232;43.854;2023-09-19T00:17:04;101372.03;;;8.36;75.60
73453;BME280;61687;56.232;43.854;2023-09-19T00:19:35;101373.00;;;8.31;75.60
73453;BME280;61687;56.232;43.854;2023-09-19T00:22:01;101373.34;;;8.30;75.61
73453;BME280;61687;56.232;43.854;2023-09-19T00:24:28;101378.00;;;8.29;75.69
73453;BME280;61687;56.232;43.854;2023-09-19T00:26:54;101378.00;;;8.29;75.59
73453;BME280;61687;56.232;43.854;2023-09-19T00:29:21;101380.25;;;8.27;75.49
73453;BME280;61687;56.232;43.854;2023-09-19T00:31:50;101386.53;;;8.28;75.64
73453;BME280;61687;56.232;43.854;2023-09-19T00:34:15;101386.53;;;8.28;75.70
73453;BME280;61687;56.232;43.854;2023-09-19T00:36:42;101385.53;;;8.33;75.41
73453;BME280;61687;56.232;43.854;2023-09-19T00:39:08;101387.47;;;8.32;75.40
73453;BME280;61687;56.232;43.854;2023-09-19T00:41:36;101391.00;;;8.33;75.50
73453;BME280;61687;56.232;43.854;2023-09-19T00:44:02;101394.38;;;8.29;75.42
73453;BME280;61687;56.232;43.854;2023-09-19T00:46:30;101387.63;;;8.27;75.61
73453;BME280;61687;56.232;43.854;2023-09-19T00:48:58;101386.38;;;8.24;75.75
73453;BME280;61687;56.232;43.854;2023-09-19T00:51:25;101386.38;;;8.24;75.50
73453;BME280;61687;56.232;43.854;2023-09-19T00:53:52;101400.00;;;8.24;75.58
73453;BME280;61687;56.232;43.854;2023-09-19T00:56:18;101394.72;;;8.19;75.57
73453;BME280;61687;56.232;43.854;2023-09-19T00:58:45;101388.94;;;8.12;75.59
73453;BME280;61687;56.232;43.854;2023-09-19T01:01:13;101386.38;;;8.07;75.67
73453;BME280;61687;56.232;43.854;2023-09-19T01:03:44;101402.59;;;8.03;75.72
73453;BME280;61687;56.232;43.854;2023-09-19T01:06:11;101404.72;;;7.97;76.00
73453;BME280;61687;56.232;43.854;2023-09-19T01:08:38;101400.03;;;7.98;75.82
73453;BME280;61687;56.232;43.854;2023-09-19T01:11:16;101398.44;;;7.97;75.65
73453;BME280;61687;56.232;43.854;2023-09-19T01:14:05;101403.25;;;7.91;75.63
73453;BME280;61687;56.232;43.854;2023-09-19T01:16:53;101398.94;;;7.90;75.67
73453;BME280;61687;56.232;43.854;2023-09-19T01:30:58;101408.09;;;7.59;75.77
73453;BME280;61687;56.232;43.854;2023-09-19T01:33:27;101399.25;;;7.53;75.64
73453;BME280;61687;56.232;43.854;2023-09-19T01:35:53;101406.13;;;7.51;75.80
73453;BME280;61687;56.232;43.854;2023-09-19T01:38:21;101411.09;;;7.49;75.80
73453;BME280;61687;56.232;43.854;2023-09-19T01:40:56;101412.38;;;7.42;75.80
73453;BME280;61687;56.232;43.854;2023-09-19T01:43:33;101406.44;;;7.40;75.75
73453;BME280;61687;56.232;43.854;2023-09-19T01:46:21;101409.34;;;7.35;75.71
73453;BME280;61687;56.232;43.854;2023-09-19T01:52:05;101407.72;;;7.25;75.76
73453;BME280;61687;56.232;43.854;2023-09-19T01:54:51;101422.75;;;7.23;75.77
73453;BME280;61687;56.232;43.854;2023-09-19T01:57:27;101414.91;;;7.12;75.69
73453;BME280;61687;56.232;43.854;2023-09-19T02:00:01;101415.03;;;7.07;75.82
73453;BME280;61687;56.232;43.854;2023-09-19T02:02:43;101416.13;;;7.06;75.97
73453;BME280;61687;56.232;43.854;2023-09-19T02:05:10;101424.66;;;7.05;75.96
73453;BME280;61687;56.232;43.854;2023-09-19T02:07:38;101416.78;;;7.03;75.99
73453;BME280;61687;56.232;43.854;2023-09-19T02:10:05;101431.53;;;7.02;76.04
73453;BME280;61687;56.232;43.854;2023-09-19T02:12:33;101439.22;;;7.00;75.99
73453;BME280;61687;56.232;43.854;2023-09-19T02:15:04;101441.25;;;6.94;76.21
73453;BME280;61687;56.232;43.854;2023-09-19T02:17:33;101440.00;;;6.92;76.00
73453;BME280;61687;56.232;43.854;2023-09-19T02:19:58;101433.53;;;6.87;76.09
73453;BME280;61687;56.232;43.854;2023-09-19T02:22:28;101442.03;;;6.86;76.35
73453;BME280;61687;56.232;43.854;2023-09-19T02:24:55;101436.91;;;6.84;76.25
73453;BME280;61687;56.232;43.854;2023-09-19T02:27:24;101438.03;;;6.83;76.24
73453;BME280;61687;56.232;43.854;2023-09-19T02:29:51;101438.94;;;6.79;76.21
73453;BME280;61687;56.232;43.854;2023-09-19T02:32:17;101438.47;;;6.77;76.23
73453;BME280;61687;56.232;43.854;2023-09-19T02:34:44;101451.28;;;6.76;76.33
73453;BME280;61687;56.232;43.854;2023-09-19T02:37:11;101446.78;;;6.71;76.33
73453;BME280;61687;56.232;43.854;2023-09-19T02:39:39;101448.53;;;6.67;76.28
73453;BME280;61687;56.232;43.854;2023-09-19T02:42:05;101450.13;;;6.68;76.32
73453;BME280;61687;56.232;43.854;2023-09-19T02:44:31;101448.22;;;6.69;76.29
73453;BME280;61687;56.232;43.854;2023-09-19T02:46:58;101466.66;;;6.72;76.26
73453;BME280;61687;56.232;43.854;2023-09-19T02:49:24;101463.44;;;6.70;76.30
73453;BME280;61687;56.232;43.854;2023-09-19T02:51:51;101462.63;;;6.69;76.14
73453;BME280;61687;56.232;43.854;2023-09-19T02:54:17;101463.44;;;6.70;76.19
73453;BME280;61687;56.232;43.854;2023-09-19T02:56:43;101468.72;;;6.66;76.16
73453;BME280;61687;56.232;43.854;2023-09-19T02:59:09;101463.88;;;6.63;76.18
73453;BME280;61687;56.232;43.854;2023-09-19T03:01:38;101471.09;;;6.68;76.20
73453;BME280;61687;56.232;43.854;2023-09-19T03:04:05;101465.16;;;6.66;76.28
73453;BME280;61687;56.232;43.854;2023-09-19T03:06:37;101465.66;;;6.68;76.36
73453;BME280;61687;56.232;43.854;2023-09-19T03:09:06;101475.94;;;6.71;76.26
73453;BME280;61687;56.232;43.854;2023-09-19T03:11:39;101471.63;;;6.70;76.05
73453;BME280;61687;56.232;43.854;2023-09-19T03:14:06;101469.69;;;6.70;75.98
73453;BME280;61687;56.232;43.854;2023-09-19T03:16:32;101480.28;;;6.72;75.99
73453;BME280;61687;56.232;43.854;2023-09-19T03:18:59;101477.41;;;6.77;76.26
73453;BME280;61687;56.232;43.854;2023-09-19T03:21:26;101464.78;;;6.81;75.95
73453;BME280;61687;56.232;43.854;2023-09-19T03:23:56;101477.78;;;6.84;76.01
73453;BME280;61687;56.232;43.854;2023-09-19T03:26:21;101480.50;;;6.84;76.29
73453;BME280;61687;56.232;43.854;2023-09-19T03:28:47;101479.06;;;6.87;76.14
73453;BME280;61687;56.232;43.854;2023-09-19T03:31:14;101482.47;;;6.93;76.09
73453;BME280;61687;56.232;43.854;2023-09-19T03:33:40;101483.44;;;6.97;76.19
73453;BME280;61687;56.232;43.854;2023-09-19T03:36:06;101482.81;;;7.00;76.09
73453;BME280;61687;56.232;43.854;2023-09-19T03:38:33;101484.63;;;7.05;76.16
73453;BME280;61687;56.232;43.854;2023-09-19T03:41:02;101489.44;;;7.08;76.21
73453;BME280;61687;56.232;43.854;2023-09-19T03:43:29;101488.81;;;7.11;76.16
73453;BME280;61687;56.232;43.854;2023-09-19T03:45:55;101485.13;;;7.15;76.14
73453;BME280;61687;56.232;43.854;2023-09-19T03:48:22;101493.16;;;7.21;76.09
73453;BME280;61687;56.232;43.854;2023-09-19T03:50:50;101491.91;;;7.27;76.02
73453;BME280;61687;56.232;43.854;2023-09-19T03:53:16;101485.50;;;7.32;76.04
73453;BME280;61687;56.232;43.854;2023-09-19T03:55:44;101488.56;;;7.39;75.92
73453;BME280;61687;56.232;43.854;2023-09-19T03:58:10;101492.78;;;7.45;76.16
73453;BME280;61687;56.232;43.854;2023-09-19T04:00:38;101492.28;;;7.52;76.11
73453;BME280;61687;56.232;43.854;2023-09-19T04:03:04;101493.78;;;7.58;76.21
73453;BME280;61687;56.232;43.854;2023-09-19T04:05:32;101498.75;;;7.65;76.12
73453;BME280;61687;56.232;43.854;2023-09-19T04:07:59;101498.28;;;7.71;75.97
73453;BME280;61687;56.232;43.854;2023-09-19T04:10:25;101490.75;;;7.77;76.05
73453;BME280;61687;56.232;43.854;2023-09-19T04:12:55;101493.66;;;7.81;76.75
73453;BME280;61687;56.232;43.854;2023-09-19T04:15:23;101493.81;;;7.76;77.84
73453;BME280;61687;56.232;43.854;2023-09-19T04:17:52;101490.44;;;7.79;78.07
73453;BME280;61687;56.232;43.854;2023-09-19T04:20:18;101490.13;;;7.89;77.69
73453;BME280;61687;56.232;43.854;2023-09-19T04:22:51;101492.38;;;8.05;77.23
73453;BME280;61687;56.232;43.854;2023-09-19T04:25:17;101494.94;;;8.19;77.00
73453;BME280;61687;56.232;43.854;2023-09-19T04:27:45;101492.88;;;8.33;76.75
73453;BME280;61687;56.232;43.854;2023-09-19T04:30:12;101498.16;;;8.47;76.63
73453;BME280;61687;56.232;43.854;2023-09-19T04:32:38;101492.34;;;8.57;76.39
73453;BME280;61687;56.232;43.854;2023-09-19T04:35:08;101498.78;;;8.70;75.91
73453;BME280;61687;56.232;43.854;2023-09-19T04:37:38;101506.94;;;8.79;75.89
73453;BME280;61687;56.232;43.854;2023-09-19T04:40:09;101498.72;;;8.88;75.69
73453;BME280;61687;56.232;43.854;2023-09-19T04:42:40;101499.50;;;8.97;75.75
73453;BME280;61687;56.232;43.854;2023-09-19T04:45:07;101511.69;;;9.09;75.61
73453;BME280;61687;56.232;43.854;2023-09-19T04:47:36;101508.91;;;9.18;75.33
73453;BME280;61687;56.232;43.854;2023-09-19T04:50:09;101517.72;;;9.32;74.97
73453;BME280;61687;56.232;43.854;2023-09-19T04:52:43;101509.13;;;9.42;74.71
73453;BME280;61687;56.232;43.854;2023-09-19T04:55:13;101507.81;;;9.49;74.72
73453;BME280;61687;56.232;43.854;2023-09-19T04:57:44;101504.56;;;9.55;74.59
73453;BME280;61687;56.232;43.854;2023-09-19T05:00:15;101496.47;;;9.59;74.80
73453;BME280;61687;56.232;43.854;2023-09-19T05:02:48;101508.66;;;9.70;74.64
73453;BME280;61687;56.232;43.854;2023-09-19T05:05:20;101503.44;;;9.78;74.10
73453;BME280;61687;56.232;43.854;2023-09-19T05:07:46;101504.38;;;9.82;74.14
73453;BME280;61687;56.232;43.854;2023-09-19T05:10:13;101504.47;;;9.94;73.81
73453;BME280;61687;56.232;43.854;2023-09-19T05:12:39;101504.25;;;9.99;73.66
73453;BME280;61687;56.232;43.854;2023-09-19T05:15:06;101508.75;;;10.04;73.52
73453;BME280;61687;56.232;43.854;2023-09-19T05:17:33;101510.28;;;10.14;73.40
73453;BME280;61687;56.232;43.854;2023-09-19T05:20:00;101507.59;;;10.26;73.06
73453;BME280;61687;56.232;43.854;2023-09-19T05:22:31;101513.13;;;10.39;72.77
73453;BME280;61687;56.232;43.854;2023-09-19T05:24:58;101507.53;;;10.56;72.36
73453;BME280;61687;56.232;43.854;2023-09-19T05:27:24;101511.56;;;10.71;71.79
73453;BME280;61687;56.232;43.854;2023-09-19T05:29:50;101513.53;;;10.83;71.23
73453;BME280;61687;56.232;43.854;2023-09-19T05:32:18;101513.75;;;10.91;70.93
73453;BME280;61687;56.232;43.854;2023-09-19T05:34:46;101518.94;;;11.05;70.84
73453;BME280;61687;56.232;43.854;2023-09-19T05:37:13;101516.56;;;11.15;70.27
73453;BME280;61687;56.232;43.854;2023-09-19T05:39:39;101505.13;;;11.26;69.97
73453;BME280;61687;56.232;43.854;2023-09-19T05:42:05;101509.25;;;11.44;69.61
73453;BME280;61687;56.232;43.854;2023-09-19T05:44:33;101505.56;;;11.53;69.35
73453;BME280;61687;56.232;43.854;2023-09-19T05:46:59;101505.91;;;11.64;69.21
73453;BME280;61687;56.232;43.854;2023-09-19T05:49:25;101505.91;;;11.64;68.33
73453;BME280;61687;56.232;43.854;2023-09-19T05:51:51;101517.66;;;11.77;67.83
73453;BME280;61687;56.232;43.854;2023-09-19T05:54:22;101512.16;;;11.89;67.53
73453;BME280;61687;56.232;43.854;2023-09-19T05:56:48;101509.88;;;12.04;67.74
73453;BME280;61687;56.232;43.854;2023-09-19T05:59:18;101508.09;;;12.24;68.26
73453;BME280;61687;56.232;43.854;2023-09-19T06:01:44;101504.16;;;12.37;68.21
73453;BME280;61687;56.232;43.854;2023-09-19T06:04:10;101498.06;;;12.44;67.75
73453;BME280;61687;56.232;43.854;2023-09-19T06:06:36;101504.34;;;12.44;67.00
73453;BME280;61687;56.232;43.854;2023-09-19T06:09:04;101500.00;;;12.43;66.48
73453;BME280;61687;56.232;43.854;2023-09-19T06:11:35;101503.44;;;12.40;65.78
73453;BME280;61687;56.232;43.854;2023-09-19T06:14:02;101508.59;;;12.42;65.26
73453;BME280;61687;56.232;43.854;2023-09-19T06:16:30;101501.94;;;12.43;63.33
73453;BME280;61687;56.232;43.854;2023-09-19T06:18:59;101514.63;;;12.48;62.33
73453;BME280;61687;56.232;43.854;2023-09-19T06:21:28;101511.72;;;12.56;60.83
73453;BME280;61687;56.232;43.854;2023-09-19T06:23:54;101512.97;;;12.59;59.26
73453;BME280;61687;56.232;43.854;2023-09-19T06:26:20;101511.00;;;12.59;59.55
73453;BME280;61687;56.232;43.854;2023-09-19T06:28:46;101511.47;;;12.62;59.87
73453;BME280;61687;56.232;43.854;2023-09-19T06:31:12;101499.78;;;12.65;59.50
73453;BME280;61687;56.232;43.854;2023-09-19T06:33:38;101499.84;;;12.68;59.17
73453;BME280;61687;56.232;43.854;2023-09-19T06:36:07;101498.53;;;12.78;59.58
73453;BME280;61687;56.232;43.854;2023-09-19T06:38:33;101506.28;;;12.88;59.36
73453;BME280;61687;56.232;43.854;2023-09-19T06:41:02;101502.81;;;12.92;58.85
73453;BME280;61687;56.232;43.854;2023-09-19T06:43:33;101506.00;;;12.94;58.99
73453;BME280;61687;56.232;43.854;2023-09-19T06:46:00;101504.69;;;13.03;59.23
73453;BME280;61687;56.232;43.854;2023-09-19T06:48:26;101511.16;;;13.11;58.82
73453;BME280;61687;56.232;43.854;2023-09-19T06:50:56;101507.88;;;13.22;58.56
73453;BME280;61687;56.232;43.854;2023-09-19T06:53:24;101497.75;;;13.26;57.89
73453;BME280;61687;56.232;43.854;2023-09-19T06:55:51;101498.22;;;13.28;57.52
73453;BME280;61687;56.232;43.854;2023-09-19T06:58:17;101499.09;;;13.32;57.83
73453;BME280;61687;56.232;43.854;2023-09-19T07:00:43;101503.50;;;13.37;57.42
73453;BME280;61687;56.232;43.854;2023-09-19T07:03:11;101498.91;;;13.41;57.57
73453;BME280;61687;56.232;43.854;2023-09-19T07:05:39;101501.50;;;13.50;57.39
73453;BME280;61687;56.232;43.854;2023-09-19T07:08:07;101501.03;;;13.64;56.90
73453;BME280;61687;56.232;43.854;2023-09-19T07:10:34;101505.75;;;13.83;55.86
73453;BME280;61687;56.232;43.854;2023-09-19T07:13:02;101504.25;;;14.05;54.93
73453;BME280;61687;56.232;43.854;2023-09-19T07:15:29;101502.38;;;14.29;54.69
73453;BME280;61687;56.232;43.854;2023-09-19T07:17:56;101492.75;;;14.42;53.01
73453;BME280;61687;56.232;43.854;2023-09-19T07:20:23;101497.34;;;14.54;52.37
73453;BME280;61687;56.232;43.854;2023-09-19T07:22:53;101492.88;;;14.69;52.48
73453;BME280;61687;56.232;43.854;2023-09-19T07:25:26;101487.28;;;14.85;52.47
73453;BME280;61687;56.232;43.854;2023-09-19T07:27:52;101489.97;;;15.05;52.76
73453;BME280;61687;56.232;43.854;2023-09-19T07:30:18;101485.13;;;15.25;52.89
73453;BME280;61687;56.232;43.854;2023-09-19T07:32:44;101489.78;;;15.44;51.95
73453;BME280;61687;56.232;43.854;2023-09-19T07:35:09;101482.56;;;15.63;51.37
73453;BME280;61687;56.232;43.854;2023-09-19T07:37:35;101479.22;;;15.50;48.56
73453;BME280;61687;56.232;43.854;2023-09-19T07:40:06;101488.22;;;15.47;49.38
73453;BME280;61687;56.232;43.854;2023-09-19T07:42:40;101491.13;;;15.58;49.86
73453;BME280;61687;56.232;43.854;2023-09-19T07:45:10;101481.13;;;15.77;49.83
73453;BME280;61687;56.232;43.854;2023-09-19T07:47:44;101487.13;;;15.82;47.97
73453;BME280;61687;56.232;43.854;2023-09-19T07:50:10;101482.53;;;15.90;48.13
73453;BME280;61687;56.232;43.854;2023-09-19T07:52:37;101481.44;;;15.98;47.97
73453;BME280;61687;56.232;43.854;2023-09-19T07:55:06;101486.94;;;15.95;46.63
73453;BME280;61687;56.232;43.854;2023-09-19T07:57:35;101483.38;;;15.94;47.59
73453;BME280;61687;56.232;43.854;2023-09-19T08:00:02;101487.78;;;15.99;47.54
73453;BME280;61687;56.232;43.854;2023-09-19T08:02:37;101488.63;;;16.03;47.84
73453;BME280;61687;56.232;43.854;2023-09-19T08:05:10;101482.84;;;16.15;47.73
73453;BME280;61687;56.232;43.854;2023-09-19T08:07:39;101481.03;;;16.30;47.55
73453;BME280;61687;56.232;43.854;2023-09-19T08:10:05;101484.28;;;16.40;46.96
73453;BME280;61687;56.232;43.854;2023-09-19T08:12:43;101482.38;;;16.48;46.74
73453;BME280;61687;56.232;43.854;2023-09-19T08:15:16;101478.78;;;16.43;45.41
73453;BME280;61687;56.232;43.854;2023-09-19T08:17:43;101477.91;;;16.36;45.34
73453;BME280;61687;56.232;43.854;2023-09-19T08:20:10;101471.59;;;16.35;45.40
73453;BME280;61687;56.232;43.854;2023-09-19T08:22:46;101470.78;;;16.00;45.49
73453;BME280;61687;56.232;43.854;2023-09-19T08:25:15;101474.00;;;15.72;45.64
73453;BME280;61687;56.232;43.854;2023-09-19T08:27:46;101456.38;;;15.53;46.05
73453;BME280;61687;56.232;43.854;2023-09-19T08:30:18;101464.22;;;15.24;46.25
73453;BME280;61687;56.232;43.854;2023-09-19T08:32:44;101457.25;;;15.34;46.87
73453;BME280;61687;56.232;43.854;2023-09-19T08:35:12;101461.16;;;15.29;46.63
73453;BME280;61687;56.232;43.854;2023-09-19T08:37:37;101464.75;;;15.34;46.87
73453;BME280;61687;56.232;43.854;2023-09-19T08:40:04;101461.69;;;15.39;47.09
73453;BME280;61687;56.232;43.854;2023-09-19T08:42:47;101464.31;;;15.58;46.63
73453;BME280;61687;56.232;43.854;2023-09-19T08:45:13;101465.97;;;15.63;46.52
73453;BME280;61687;56.232;43.854;2023-09-19T08:47:47;101468.25;;;15.57;46.57
73453;BME280;61687;56.232;43.854;2023-09-19T08:50:26;101471.03;;;15.57;47.26
73453;BME280;61687;56.232;43.854;2023-09-19T08:52:55;101465.09;;;15.59;47.81
73453;BME280;61687;56.232;43.854;2023-09-19T08:55:27;101472.41;;;15.71;47.43
73453;BME280;61687;56.232;43.854;2023-09-19T08:58:00;101470.47;;;15.75;46.90
73453;BME280;61687;56.232;43.854;2023-09-19T09:00:27;101466.56;;;15.80;47.52
73453;BME280;61687;56.232;43.854;2023-09-19T09:02:55;101464.78;;;15.91;46.63
73453;BME280;61687;56.232;43.854;2023-09-19T09:05:23;101462.84;;;15.95;46.65
73453;BME280;61687;56.232;43.854;2023-09-19T09:07:50;101459.28;;;15.95;47.34
73453;BME280;61687;56.232;43.854;2023-09-19T09:10:19;101458.31;;;15.83;46.64
73453;BME280;61687;56.232;43.854;2023-09-19T09:12:54;101457.28;;;15.65;46.63
73453;BME280;61687;56.232;43.854;2023-09-19T09:15:23;101448.56;;;15.32;46.80
73453;BME280;61687;56.232;43.854;2023-09-19T09:17:50;101443.44;;;15.34;47.24
73453;BME280;61687;56.232;43.854;2023-09-19T09:20:17;101447.53;;;15.44;47.81
73453;BME280;61687;56.232;43.854;2023-09-19T09:22:51;101454.50;;;15.34;46.60
73453;BME280;61687;56.232;43.854;2023-09-19T09:25:18;101454.22;;;15.43;47.17
73453;BME280;61687;56.232;43.854;2023-09-19T09:27:58;101447.53;;;15.44;47.30
73453;BME280;61687;56.232;43.854;2023-09-19T09:30:36;101452.38;;;15.51;47.20
73453;BME280;61687;56.232;43.854;2023-09-19T09:33:12;101452.78;;;15.53;47.63
73453;BME280;61687;56.232;43.854;2023-09-19T09:36:11;101452.69;;;15.45;46.25
73453;BME280;61687;56.232;43.854;2023-09-19T09:38:45;101449.53;;;15.43;46.57
73453;BME280;61687;56.232;43.854;2023-09-19T09:41:12;101448.28;;;15.41;47.16
73453;BME280;61687;56.232;43.854;2023-09-19T09:43:43;101444.03;;;15.47;47.24
73453;BME280;61687;56.232;43.854;2023-09-19T09:46:15;101446.47;;;15.52;46.76
73453;BME280;61687;56.232;43.854;2023-09-19T09:48:57;101441.75;;;15.53;46.99
73453;BME280;61687;56.232;43.854;2023-09-19T09:52:04;101444.69;;;15.67;47.15
73453;BME280;61687;56.232;43.854;2023-09-19T09:55:02;101439.38;;;15.82;46.72
73453;BME280;61687;56.232;43.854;2023-09-19T09:57:31;101437.13;;;15.91;46.92
73453;BME280;61687;56.232;43.854;2023-09-19T09:59:58;101428.91;;;15.98;47.33
73453;BME280;61687;56.232;43.854;2023-09-19T10:02:38;101438.06;;;16.02;47.29
73453;BME280;61687;56.232;43.854;2023-09-19T10:05:18;101435.28;;;16.02;47.17
73453;BME280;61687;56.232;43.854;2023-09-19T10:07:50;101429.44;;;16.11;46.65
73453;BME280;61687;56.232;43.854;2023-09-19T10:10:40;101423.34;;;16.33;46.28
73453;BME280;61687;56.232;43.854;2023-09-19T10:13:13;101417.66;;;16.59;45.07
73453;BME280;61687;56.232;43.854;2023-09-19T10:15:43;101425.34;;;16.77;45.36
73453;BME280;61687;56.232;43.854;2023-09-19T10:18:23;101417.56;;;16.94;45.38
73453;BME280;61687;56.232;43.854;2023-09-19T10:20:51;101422.88;;;17.13;44.93
73453;BME280;61687;56.232;43.854;2023-09-19T10:23:19;101419.81;;;17.33;43.75
73453;BME280;61687;56.232;43.854;2023-09-19T10:25:50;101415.50;;;17.39;42.58
73453;BME280;61687;56.232;43.854;2023-09-19T10:28:17;101411.13;;;17.38;43.04
73453;BME280;61687;56.232;43.854;2023-09-19T10:30:50;101409.88;;;17.21;42.86
73453;BME280;61687;56.232;43.854;2023-09-19T10:33:21;101414.91;;;17.05;43.30
73453;BME280;61687;56.232;43.854;2023-09-19T10:35:49;101404.00;;;16.78;43.30
73453;BME280;61687;56.232;43.854;2023-09-19T10:38:24;101403.06;;;16.63;43.98
73453;BME280;61687;56.232;43.854;2023-09-19T10:40:52;101406.91;;;16.51;44.64
73453;BME280;61687;56.232;43.854;2023-09-19T10:43:20;101411.66;;;16.50;45.44
73453;BME280;61687;56.232;43.854;2023-09-19T10:45:51;101411.69;;;16.54;45.69
73453;BME280;61687;56.232;43.854;2023-09-19T10:48:20;101407.09;;;16.69;45.34
73453;BME280;61687;56.232;43.854;2023-09-19T10:51:06;101400.84;;;17.35;44.64
73453;BME280;61687;56.232;43.854;2023-09-19T10:53:54;101398.63;;;17.77;43.91
73453;BME280;61687;56.232;43.854;2023-09-19T10:56:24;101396.66;;;17.81;43.57
73453;BME280;61687;56.232;43.854;2023-09-19T10:59:14;101395.00;;;17.58;42.21
73453;BME280;61687;56.232;43.854;2023-09-19T11:01:54;101390.59;;;17.50;43.75
73453;BME280;61687;56.232;43.854;2023-09-19T11:04:31;101393.47;;;17.72;43.56
73453;BME280;61687;56.232;43.854;2023-09-19T11:09:51;101392.34;;;17.87;41.87
73453;BME280;61687;56.232;43.854;2023-09-19T11:14:57;101384.72;;;17.59;43.53
73453;BME280;61687;56.232;43.854;2023-09-19T11:17:42;101378.03;;;17.74;43.92
73453;BME280;61687;56.232;43.854;2023-09-19T11:30:36;101369.22;;;17.51;44.90
73453;BME280;61687;56.232;43.854;2023-09-19T11:36:13;101360.88;;;17.43;46.32
73453;BME280;61687;56.232;43.854;2023-09-19T11:43:53;101357.41;;;17.61;44.82
73453;BME280;61687;56.232;43.854;2023-09-19T11:46:24;101342.41;;;17.91;43.20
73453;BME280;61687;56.232;43.854;2023-09-19T11:48:51;101342.47;;;18.13;43.34
73453;BME280;61687;56.232;43.854;2023-09-19T11:51:22;101338.50;;;18.14;43.64
73453;BME280;61687;56.232;43.854;2023-09-19T11:53:50;101333.75;;;18.11;43.91
73453;BME280;61687;56.232;43.854;2023-09-19T11:56:21;101332.56;;;18.05;42.91
73453;BME280;61687;56.232;43.854;2023-09-19T11:58:50;101333.31;;;17.98;43.13
73453;BME280;61687;56.232;43.854;2023-09-19T12:01:22;101338.06;;;17.94;43.39
73453;BME280;61687;56.232;43.854;2023-09-19T12:03:53;101342.06;;;17.96;43.50
73453;BME280;61687;56.232;43.854;2023-09-19T12:06:20;101330.59;;;18.01;43.50
73453;BME280;61687;56.232;43.854;2023-09-19T12:08:47;101330.59;;;18.12;43.75
73453;BME280;61687;56.232;43.854;2023-09-19T12:11:15;101337.34;;;18.40;43.54
73453;BME280;61687;56.232;43.854;2023-09-19T12:13:45;101324.22;;;18.77;42.22
73453;BME280;61687;56.232;43.854;2023-09-19T12:16:19;101323.81;;;18.90;41.55
73453;BME280;61687;56.232;43.854;2023-09-19T12:18:49;101325.41;;;18.83;42.53
73453;BME280;61687;56.232;43.854;2023-09-19T12:21:23;101321.84;;;18.76;43.22
73453;BME280;61687;56.232;43.854;2023-09-19T12:24:06;101319.09;;;18.68;43.52
73453;BME280;61687;56.232;43.854;2023-09-19T12:26:39;101319.50;;;18.67;43.15
73453;BME280;61687;56.232;43.854;2023-09-19T12:29:19;101318.69;;;18.70;42.35
73453;BME280;61687;56.232;43.854;2023-09-19T12:31:54;101314.13;;;19.41;42.00
73453;BME280;61687;56.232;43.854;2023-09-19T12:34:28;101314.28;;;19.87;41.67
73453;BME280;61687;56.232;43.854;2023-09-19T12:37:10;101311.91;;;19.82;41.09
73453;BME280;61687;56.232;43.854;2023-09-19T12:39:54;101300.13;;;19.63;40.58
73453;BME280;61687;56.232;43.854;2023-09-19T12:42:40;101298.53;;;19.62;41.30
73453;BME280;61687;56.232;43.854;2023-09-19T12:45:07;101303.28;;;19.65;41.11
73453;BME280;61687;56.232;43.854;2023-09-19T12:47:35;101307.09;;;19.97;41.29
73453;BME280;61687;56.232;43.854;2023-09-19T12:50:08;101306.19;;;20.11;40.74
73453;BME280;61687;56.232;43.854;2023-09-19T12:52:41;101294.81;;;20.36;40.08
73453;BME280;61687;56.232;43.854;2023-09-19T12:55:07;101299.19;;;20.79;39.26
73453;BME280;61687;56.232;43.854;2023-09-19T12:57:35;101299.31;;;21.38;36.84
73453;BME280;61687;56.232;43.854;2023-09-19T13:00:02;101290.44;;;21.78;35.86
73453;BME280;61687;56.232;43.854;2023-09-19T13:02:30;101294.66;;;21.58;36.08
73453;BME280;61687;56.232;43.854;2023-09-19T13:04:55;101289.19;;;21.51;37.51
73453;BME280;61687;56.232;43.854;2023-09-19T13:07:43;101289.16;;;21.55;37.87
73453;BME280;61687;56.232;43.854;2023-09-19T13:10:11;101284.88;;;21.47;37.53
73453;BME280;61687;56.232;43.854;2023-09-19T13:12:38;101291.91;;;21.86;36.90
73453;BME280;61687;56.232;43.854;2023-09-19T13:15:11;101283.13;;;23.20;35.08
73453;BME280;61687;56.232;43.854;2023-09-19T13:17:48;101276.91;;;24.94;32.52
73453;BME280;61687;56.232;43.854;2023-09-19T13:20:22;101288.69;;;26.45;31.12
73453;BME280;61687;56.232;43.854;2023-09-19T13:22:54;101281.50;;;27.74;29.38
73453;BME280;61687;56.232;43.854;2023-09-19T13:25:24;101278.97;;;28.54;27.25
73453;BME280;61687;56.232;43.854;2023-09-19T13:27:52;101274.38;;;29.03;26.96
73453;BME280;61687;56.232;43.854;2023-09-19T13:30:21;101276.25;;;29.06;26.24
73453;BME280;61687;56.232;43.854;2023-09-19T13:32:47;101271.25;;;29.01;25.20
73453;BME280;61687;56.232;43.854;2023-09-19T13:35:14;101271.28;;;28.54;26.67
73453;BME280;61687;56.232;43.854;2023-09-19T13:37:41;101271.25;;;28.08;27.53